Terminal Aerodrome Forecast
Issued by NWS

Home | Current Version | Previous Version | Text Only | Print | Product List | Glossary On
Versions: 1 2 3 4 5 6 7 8 9 10 11 12 13
000
FTUS42 KMLB 060544
TAFSUA
TAF
KSUA 060544Z 0606/0706 27005KT P6SM BKN080
     FM061400 35006KT P6SM SCT015 BKN025
     FM062000 36010KT P6SM SCT015 BKN025=

USA.gov is the U.S. government's official web portal to all federal, state and local government web resources and services.